Time;durP1;ratioP1;P1;durP2;ratioP2;P2;SDS_P1;SDS_P2;PMS_P1;PMS_P2;Temp;Humidity;BMP_temperature;BMP_pressure;BME280_temperature;BME280_humidity;BME280_pressure;Samples;Min_cycle;Max_cycle;Signal;HPM_P1;HPM_P2
2021/11/09 00:02:03;;;;;;;6.93;3.67;;;7.70;99.90;;;;;;5025982;28;20117;-54
2021/11/09 00:04:38;;;;;;;8.70;4.13;;;7.70;99.90;;;;;;5024598;28;20026;-50
2021/11/09 00:07:23;;;;;;;6.85;4.38;;;7.70;99.90;;;;;;5026422;28;20273;-53
2021/11/09 00:09:57;;;;;;;6.22;3.65;;;7.70;99.90;;;;;;5026532;28;20578;-53
2021/11/09 00:12:44;;;;;;;9.00;4.70;;;7.70;99.90;;;;;;5024775;28;20033;-55
2021/11/09 00:15:13;;;;;;;5.25;4.15;;;7.70;99.90;;;;;;5025671;28;20033;-52
2021/11/09 00:17:39;;;;;;;8.75;5.22;;;7.70;99.90;;;;;;5024836;28;20116;-52
2021/11/09 00:20:07;;;;;;;10.73;5.57;;;7.70;99.90;;;;;;5027273;28;20104;-51
2021/11/09 00:22:33;;;;;;;8.70;5.65;;;7.70;99.90;;;;;;5024674;28;20423;-52
2021/11/09 00:24:59;;;;;;;7.93;5.18;;;7.70;99.90;;;;;;5027458;28;20044;-56
2021/11/09 00:27:24;;;;;;;8.43;4.57;;;7.70;99.90;;;;;;5025922;28;20026;-55
2021/11/09 00:29:50;;;;;;;7.65;4.43;;;7.70;99.90;;;;;;5024035;28;20124;-53
2021/11/09 00:32:16;;;;;;;8.18;5.20;;;7.70;99.90;;;;;;5025538;28;20037;-54
2021/11/09 00:34:45;;;;;;;10.90;6.18;;;7.70;99.90;;;;;;5024240;28;20026;-56
2021/11/09 00:37:12;;;;;;;8.50;5.40;;;7.70;99.90;;;;;;5025436;28;20025;-53
2021/11/09 00:39:40;;;;;;;9.95;5.20;;;7.70;99.90;;;;;;5025369;28;20569;-52
2021/11/09 00:42:05;;;;;;;9.38;5.10;;;7.70;99.90;;;;;;5025155;28;20029;-54
2021/11/09 00:44:31;;;;;;;8.32;4.93;;;7.70;99.90;;;;;;5026972;28;20370;-55
2021/11/09 00:46:57;;;;;;;11.02;6.30;;;7.70;99.90;;;;;;5025893;28;20022;-55
2021/11/09 00:49:22;;;;;;;11.57;5.43;;;7.60;99.90;;;;;;5024755;28;20038;-50
2021/11/09 00:51:50;;;;;;;10.93;5.80;;;7.60;99.90;;;;;;5026039;28;20033;-56
2021/11/09 00:54:17;;;;;;;7.82;5.60;;;7.60;99.90;;;;;;5024444;28;20025;-55
2021/11/09 00:56:43;;;;;;;8.30;5.32;;;7.60;99.90;;;;;;5024202;28;20065;-52
2021/11/09 00:59:09;;;;;;;7.13;4.88;;;7.60;99.90;;;;;;5024282;28;20674;-51
2021/11/09 01:01:35;;;;;;;11.18;5.60;;;7.60;99.90;;;;;;5025112;28;20017;-54
2021/11/09 01:04:01;;;;;;;6.15;4.80;;;7.60;99.90;;;;;;5025413;28;20044;-54
2021/11/09 01:06:27;;;;;;;9.18;5.30;;;7.60;99.90;;;;;;5023584;28;20454;-55
2021/11/09 01:08:53;;;;;;;7.55;3.95;;;7.50;99.90;;;;;;5023742;28;20083;-52
2021/11/09 01:11:19;;;;;;;6.28;4.65;;;7.50;99.90;;;;;;5026528;28;20410;-52
2021/11/09 01:13:46;;;;;;;7.80;4.93;;;7.50;99.90;;;;;;5023637;28;20029;-54
2021/11/09 01:16:13;;;;;;;9.60;4.60;;;7.50;99.90;;;;;;5021973;28;20041;-50
2021/11/09 01:18:46;;;;;;;6.65;4.00;;;7.40;99.90;;;;;;5020078;28;20037;-53
2021/11/09 01:21:13;;;;;;;5.53;4.55;;;7.40;99.90;;;;;;5025212;28;20068;-51
2021/11/09 01:23:40;;;;;;;8.30;4.70;;;7.40;99.90;;;;;;5025824;28;20025;-53
2021/11/09 01:26:07;;;;;;;9.38;4.65;;;7.40;99.90;;;;;;5025470;28;20029;-53
2021/11/09 01:28:33;;;;;;;8.68;5.25;;;7.40;99.90;;;;;;5025731;28;20513;-52
2021/11/09 01:30:59;;;;;;;8.18;4.15;;;7.40;99.90;;;;;;5024906;28;20037;-53
2021/11/09 01:33:25;;;;;;;7.95;3.60;;;7.40;99.90;;;;;;5025133;28;20407;-52
2021/11/09 01:35:52;;;;;;;5.50;3.67;;;7.40;99.90;;;;;;5024300;28;20328;-54
2021/11/09 01:38:18;;;;;;;6.47;4.20;;;7.40;99.90;;;;;;5024211;28;20431;-55
2021/11/09 01:40:44;;;;;;;7.78;3.42;;;7.30;99.90;;;;;;5025661;28;20112;-54
2021/11/09 01:43:11;;;;;;;8.55;3.47;;;7.40;99.90;;;;;;5025732;28;20056;-50
2021/11/09 01:45:37;;;;;;;6.72;4.03;;;7.30;99.90;;;;;;5023252;28;20029;-51
2021/11/09 01:48:04;;;;;;;6.93;3.65;;;7.30;99.90;;;;;;5025375;28;20061;-50
2021/11/09 01:50:34;;;;;;;6.32;3.08;;;7.30;99.90;;;;;;5024395;28;20030;-53
2021/11/09 01:53:00;;;;;;;7.57;3.70;;;7.30;99.90;;;;;;5024416;28;20152;-50
2021/11/09 01:55:28;;;;;;;6.07;3.65;;;7.30;99.90;;;;;;5023356;28;20030;-53
2021/11/09 01:57:55;;;;;;;7.60;3.83;;;7.30;99.90;;;;;;5022269;28;20128;-52
2021/11/09 02:00:35;;;;;;;7.53;3.33;;;7.30;99.90;;;;;;5021676;28;20396;-55
2021/11/09 02:03:01;;;;;;;7.45;2.70;;;7.30;99.90;;;;;;5023646;28;20033;-52
2021/11/09 02:05:28;;;;;;;10.05;2.97;;;7.30;99.90;;;;;;5023469;28;20033;-51
2021/11/09 02:07:59;;;;;;;6.90;2.65;;;7.30;99.90;;;;;;5025978;28;20021;-50
2021/11/09 02:10:27;;;;;;;5.20;2.97;;;7.30;99.90;;;;;;5025407;28;20056;-50
2021/11/09 02:12:54;;;;;;;4.60;2.70;;;7.30;99.90;;;;;;5028344;28;20083;-52
2021/11/09 02:15:20;;;;;;;8.00;3.13;;;7.30;99.90;;;;;;5028783;28;20060;-50
2021/11/09 02:17:47;;;;;;;6.68;2.95;;;7.30;99.90;;;;;;5028671;28;20029;-51
2021/11/09 02:20:17;;;;;;;5.43;3.40;;;7.30;99.90;;;;;;5029795;28;20040;-52
2021/11/09 02:22:43;;;;;;;9.23;4.00;;;7.30;99.90;;;;;;5029320;28;20471;-52
2021/11/09 02:25:11;;;;;;;4.93;2.70;;;7.30;99.90;;;;;;5029056;28;20080;-52
2021/11/09 02:27:39;;;;;;;5.35;2.95;;;7.30;99.90;;;;;;5028168;28;20116;-52
2021/11/09 02:30:08;;;;;;;5.88;3.25;;;7.30;99.90;;;;;;5028899;28;20055;-55
2021/11/09 02:32:34;;;;;;;5.45;2.97;;;7.30;99.90;;;;;;5027307;28;20579;-53
2021/11/09 02:34:59;;;;;;;6.72;3.90;;;7.30;99.90;;;;;;5028118;28;20068;-49
2021/11/09 02:37:25;;;;;;;4.35;2.88;;;7.30;99.90;;;;;;5029086;28;20025;-52
2021/11/09 02:39:51;;;;;;;5.63;2.58;;;7.30;99.90;;;;;;5028568;28;20033;-50
2021/11/09 02:42:19;;;;;;;6.07;3.15;;;7.30;99.90;;;;;;5028470;28;20041;-56
2021/11/09 02:44:59;;;;;;;7.70;3.03;;;7.30;99.90;;;;;;5026391;28;20029;-52
2021/11/09 02:47:29;;;;;;;7.38;3.45;;;7.30;99.90;;;;;;5027283;28;20029;-54
2021/11/09 02:50:03;;;;;;;7.05;2.80;;;7.30;99.90;;;;;;5029395;28;20031;-55
2021/11/09 02:52:31;;;;;;;8.15;3.35;;;7.30;99.90;;;;;;5027088;28;20408;-51
2021/11/09 02:55:03;;;;;;;6.13;3.30;;;7.30;99.90;;;;;;5027577;28;20026;-55
2021/11/09 02:57:48;;;;;;;9.88;2.75;;;7.30;99.90;;;;;;5027717;28;20121;-51
2021/11/09 03:00:26;;;;;;;10.15;3.03;;;7.30;99.90;;;;;;5029469;28;20503;-55
2021/11/09 03:08:34;;;;;;;11.32;2.75;;;7.30;99.90;;;;;;4977510;28;20029;-51
2021/11/09 03:11:01;;;;;;;11.57;3.78;;;7.30;99.90;;;;;;4977303;28;20572;-51
2021/11/09 03:13:27;;;;;;;8.55;2.80;;;7.30;99.90;;;;;;5000291;28;20063;-56
2021/11/09 03:15:59;;;;;;;7.43;2.53;;;7.30;99.90;;;;;;5026661;28;20128;-50
2021/11/09 03:18:26;;;;;;;6.05;2.22;;;7.30;99.90;;;;;;5028320;28;20033;-53
2021/11/09 03:23:06;;;;;;;3.25;1.77;;;7.30;99.90;;;;;;5027298;28;20033;-50
2021/11/09 03:40:25;;;;;;;7.88;2.40;;;7.30;99.90;;;;;;5027755;28;20040;-53
2021/11/09 03:45:36;;;;;;;12.57;3.22;;;7.30;99.90;;;;;;5027084;28;20063;-53
2021/11/09 03:48:07;;;;;;;9.68;2.55;;;7.30;99.90;;;;;;5027063;28;20100;-55
2021/11/09 03:50:36;;;;;;;8.13;2.67;;;7.30;99.90;;;;;;5026759;28;20105;-54
2021/11/09 03:53:46;;;;;;;4.70;2.55;;;7.30;99.90;;;;;;5028096;28;20028;-50
2021/11/09 03:58:50;;;;;;;10.32;2.85;;;7.30;99.90;;;;;;5008367;28;20033;-51
2021/11/09 04:01:26;;;;;;;6.10;2.88;;;7.30;99.90;;;;;;5026374;28;20021;-52
2021/11/09 04:06:35;;;;;;;8.45;2.78;;;7.30;99.90;;;;;;5027155;28;20396;-51
2021/11/09 04:11:45;;;;;;;8.68;2.50;;;7.30;99.90;;;;;;5028071;28;20025;-53
2021/11/09 04:17:02;;;;;;;6.38;2.17;;;7.30;99.90;;;;;;5026449;28;20099;-54
2021/11/09 04:23:13;;;;;;;5.80;2.42;;;7.30;99.90;;;;;;5025795;28;20087;-52
2021/11/09 04:25:33;;;;;;;5.75;2.40;;;7.30;99.90;;;;;;5025549;28;20131;-53
2021/11/09 05:02:28;;;;;;;11.70;5.10;;;7.30;99.90;;;;;;5025041;28;20163;-51
2021/11/09 05:10:24;;;;;;;10.75;4.32;;;7.30;99.90;;;;;;5022994;28;20028;-53
2021/11/09 05:12:50;;;;;;;10.75;5.20;;;7.30;99.90;;;;;;5025944;28;20021;-54
2021/11/09 05:15:16;;;;;;;8.95;4.38;;;7.30;99.90;;;;;;5022488;28;20037;-53
2021/11/09 05:17:41;;;;;;;13.52;5.65;;;7.30;99.90;;;;;;5023591;28;20105;-51
2021/11/09 05:20:07;;;;;;;9.02;5.88;;;7.30;99.90;;;;;;5024531;28;20034;-50
2021/11/09 05:22:33;;;;;;;11.68;5.75;;;7.30;99.90;;;;;;5022619;28;20025;-50
2021/11/09 05:24:59;;;;;;;10.48;5.28;;;7.30;99.90;;;;;;5024590;28;20388;-52
2021/11/09 05:27:27;;;;;;;10.73;5.50;;;7.30;99.90;;;;;;5026587;28;20033;-50
2021/11/09 05:29:54;;;;;;;10.60;6.20;;;7.30;99.90;;;;;;5023891;28;20054;-52
2021/11/09 05:32:20;;;;;;;10.98;5.22;;;7.30;99.90;;;;;;5026392;28;20037;-52
2021/11/09 05:34:47;;;;;;;10.30;5.55;;;7.30;99.90;;;;;;5024530;28;20099;-50
2021/11/09 05:37:14;;;;;;;10.18;5.18;;;7.30;99.90;;;;;;5024450;28;20487;-53
2021/11/09 05:39:52;;;;;;;9.43;4.68;;;7.30;99.90;;;;;;5024255;28;20045;-51
2021/11/09 05:42:18;;;;;;;8.23;4.65;;;7.20;99.90;;;;;;5024028;28;20104;-52
2021/11/09 05:44:44;;;;;;;10.68;5.15;;;7.20;99.90;;;;;;5026947;28;20100;-52
2021/11/09 05:47:11;;;;;;;6.10;4.05;;;7.20;99.90;;;;;;5026930;28;20021;-53
2021/11/09 05:49:36;;;;;;;13.85;5.10;;;7.20;99.90;;;;;;5029162;28;20029;-52
2021/11/09 05:52:03;;;;;;;6.13;4.25;;;7.20;99.90;;;;;;5027340;28;20021;-53
2021/11/09 05:54:29;;;;;;;10.43;4.78;;;7.20;99.90;;;;;;5029095;28;20144;-52
2021/11/09 05:56:55;;;;;;;12.77;6.53;;;7.20;99.90;;;;;;5026744;28;20139;-54
2021/11/09 05:59:21;;;;;;;16.55;6.75;;;7.20;99.90;;;;;;5028264;28;20565;-51
2021/11/09 06:01:49;;;;;;;11.75;6.03;;;7.20;99.90;;;;;;5028890;28;20076;-52
2021/11/09 06:04:15;;;;;;;6.93;4.97;;;7.20;99.90;;;;;;5026765;28;20028;-52
2021/11/09 06:06:41;;;;;;;9.30;4.80;;;7.20;99.90;;;;;;5027832;28;20104;-52
2021/11/09 06:09:08;;;;;;;9.52;4.68;;;7.10;99.90;;;;;;5028083;28;20164;-54
2021/11/09 06:11:33;;;;;;;7.10;4.35;;;7.20;99.90;;;;;;5029371;28;20080;-50
2021/11/09 06:13:59;;;;;;;8.45;4.88;;;7.20;99.90;;;;;;5028342;28;20025;-50
2021/11/09 06:16:25;;;;;;;5.82;4.07;;;7.20;99.90;;;;;;5030399;28;20434;-52
2021/11/09 06:18:50;;;;;;;7.00;4.63;;;7.20;99.90;;;;;;5028885;28;20101;-53
2021/11/09 06:21:16;;;;;;;5.85;3.97;;;7.20;99.90;;;;;;5027317;28;20036;-52
2021/11/09 06:23:42;;;;;;;7.80;4.05;;;7.20;99.90;;;;;;5029195;28;20080;-54
2021/11/09 06:26:08;;;;;;;9.80;4.28;;;7.20;99.90;;;;;;5026904;28;20063;-53
2021/11/09 06:28:33;;;;;;;8.80;5.78;;;7.20;99.90;;;;;;5028996;28;20040;-52
2021/11/09 06:30:59;;;;;;;12.25;5.30;;;7.30;99.90;;;;;;5026075;28;20031;-52
2021/11/09 06:33:25;;;;;;;9.00;5.20;;;7.30;99.90;;;;;;5028828;28;20108;-54
2021/11/09 06:35:52;;;;;;;10.55;5.70;;;7.30;99.90;;;;;;5027615;28;20136;-51
2021/11/09 06:38:19;;;;;;;12.20;5.82;;;7.30;99.90;;;;;;5029443;28;20021;-50
2021/11/09 06:40:45;;;;;;;8.23;5.13;;;7.30;99.90;;;;;;5028527;28;20032;-53
2021/11/09 06:43:11;;;;;;;9.75;5.88;;;7.30;99.90;;;;;;5024766;28;20472;-52
2021/11/09 06:45:37;;;;;;;9.20;5.65;;;7.30;99.90;;;;;;5024640;28;20391;-50
2021/11/09 06:48:05;;;;;;;9.38;5.40;;;7.30;99.90;;;;;;5024574;28;20025;-52
2021/11/09 06:50:31;;;;;;;9.57;5.93;;;7.30;99.90;;;;;;5029078;28;20025;-53
2021/11/09 06:52:58;;;;;;;8.15;5.53;;;7.30;99.90;;;;;;5026953;28;20022;-51
2021/11/09 06:55:23;;;;;;;12.00;7.43;;;7.30;99.90;;;;;;5026746;28;20075;-50
2021/11/09 06:57:49;;;;;;;11.68;6.60;;;7.30;99.90;;;;;;5024083;28;20025;-52
2021/11/09 07:00:18;;;;;;;11.52;7.93;;;7.40;99.90;;;;;;5028612;28;20613;-52
2021/11/09 07:02:45;;;;;;;10.30;6.63;;;7.40;99.90;;;;;;5026674;28;20056;-52
2021/11/09 07:05:12;;;;;;;13.57;7.72;;;7.40;99.90;;;;;;5023167;28;20036;-52
2021/11/09 07:07:38;;;;;;;11.02;7.75;;;7.40;99.90;;;;;;5026026;28;20510;-54
2021/11/09 07:10:05;;;;;;;11.27;7.68;;;7.50;99.90;;;;;;5026612;28;20052;-54
2021/11/09 07:12:31;;;;;;;13.25;7.03;;;7.40;99.90;;;;;;5027696;28;20487;-52
2021/11/09 07:14:56;;;;;;;13.18;7.47;;;7.40;99.90;;;;;;5025369;28;20025;-51
2021/11/09 07:17:22;;;;;;;10.05;7.28;;;7.40;99.90;;;;;;5024834;28;20079;-52
2021/11/09 07:19:51;;;;;;;11.68;7.03;;;7.40;99.90;;;;;;5026909;28;20021;-53
2021/11/09 07:22:18;;;;;;;10.25;6.93;;;7.40;99.90;;;;;;5027436;28;20022;-52
2021/11/09 07:24:44;;;;;;;14.18;7.50;;;7.40;99.90;;;;;;5028422;28;20029;-52
2021/11/09 07:27:10;;;;;;;11.48;6.88;;;7.40;99.90;;;;;;5027835;28;20086;-52
2021/11/09 07:29:36;;;;;;;9.93;6.53;;;7.30;99.90;;;;;;5028290;28;20029;-51
2021/11/09 07:32:02;;;;;;;10.00;6.70;;;7.30;99.90;;;;;;5028351;28;20045;-53
2021/11/09 07:34:28;;;;;;;8.93;7.00;;;7.30;99.90;;;;;;5027372;28;20048;-53
2021/11/09 07:36:53;;;;;;;9.70;7.00;;;7.30;99.90;;;;;;5027874;28;20052;-50
2021/11/09 07:39:22;;;;;;;10.93;7.30;;;7.30;99.90;;;;;;5027207;28;20017;-52
2021/11/09 07:41:48;;;;;;;12.73;7.10;;;7.30;99.90;;;;;;5027496;28;20014;-52
2021/11/09 07:44:13;;;;;;;10.82;6.22;;;7.30;99.90;;;;;;5025227;28;20020;-51
2021/11/09 07:46:40;;;;;;;9.70;7.00;;;7.30;99.90;;;;;;5027290;28;20128;-53
2021/11/09 07:49:05;;;;;;;12.60;8.55;;;7.30;99.90;;;;;;5026272;28;20026;-52
2021/11/09 07:51:32;;;;;;;11.45;7.38;;;7.30;99.90;;;;;;5027557;28;20025;-50
2021/11/09 07:54:00;;;;;;;14.27;8.27;;;7.30;99.90;;;;;;5025413;28;20021;-55
2021/11/09 07:56:46;;;;;;;11.35;6.93;;;7.30;99.90;;;;;;5026362;28;20049;-54
2021/11/09 08:03:00;;;;;;;14.52;9.05;;;7.40;99.90;;;;;;4977901;28;20092;-49
2021/11/09 08:05:04;;;;;;;12.77;8.05;;;7.50;99.90;;;;;;5017731;28;20037;-53
2021/11/09 08:07:36;;;;;;;11.50;7.55;;;7.50;99.90;;;;;;5028089;28;20029;-53
2021/11/09 08:10:02;;;;;;;13.18;8.65;;;7.50;99.90;;;;;;5027957;28;20014;-55
2021/11/09 08:12:27;;;;;;;13.07;8.93;;;7.60;99.90;;;;;;5028124;28;20026;-54
2021/11/09 08:14:53;;;;;;;13.05;7.97;;;7.60;99.90;;;;;;5028135;28;20017;-54
2021/11/09 08:17:19;;;;;;;12.60;8.30;;;7.70;99.90;;;;;;5027974;28;20549;-55
2021/11/09 08:19:44;;;;;;;14.20;7.95;;;7.70;99.90;;;;;;5027925;28;20021;-53
2021/11/09 08:22:11;;;;;;;12.15;7.07;;;7.70;99.90;;;;;;5026323;28;20029;-53
2021/11/09 08:24:37;;;;;;;15.23;7.60;;;7.80;99.90;;;;;;5027528;28;20148;-54
2021/11/09 08:27:10;;;;;;;13.15;6.32;;;7.80;99.90;;;;;;5027374;28;20083;-53
2021/11/09 08:29:36;;;;;;;13.52;7.43;;;7.90;99.90;;;;;;5027807;28;20021;-54
2021/11/09 08:32:02;;;;;;;12.23;6.25;;;8.00;99.90;;;;;;5026495;28;20451;-54
2021/11/09 08:34:30;;;;;;;10.25;6.53;;;8.00;99.90;;;;;;5026720;28;20018;-55
2021/11/09 08:36:58;;;;;;;12.55;6.20;;;8.10;99.90;;;;;;5024624;28;20029;-54
2021/11/09 08:39:35;;;;;;;9.93;6.00;;;8.10;99.90;;;;;;5024279;28;20091;-52
2021/11/09 08:44:34;;;;;;;13.77;6.38;;;8.20;99.90;;;;;;5024617;28;20439;-50
2021/11/09 08:47:01;;;;;;;14.60;6.57;;;8.30;99.90;;;;;;5025750;28;20033;-52
2021/11/09 08:49:32;;;;;;;14.77;7.85;;;8.30;99.90;;;;;;5024964;28;20052;-50
2021/11/09 08:52:00;;;;;;;16.02;7.93;;;8.40;99.90;;;;;;5026039;28;20574;-53
2021/11/09 08:54:36;;;;;;;19.25;9.48;;;8.40;99.90;;;;;;5026082;28;20025;-51
2021/11/09 09:05:04;;;;;;;19.02;10.55;;;8.70;99.90;;;;;;5026709;28;20121;-55
2021/11/09 09:07:31;;;;;;;22.48;11.20;;;8.70;99.90;;;;;;5024906;28;20087;-55
2021/11/09 09:09:58;;;;;;;14.90;10.82;;;8.80;99.90;;;;;;5026130;28;20051;-51
2021/11/09 09:12:25;;;;;;;22.30;11.60;;;8.80;99.90;;;;;;5027261;28;20025;-55
2021/11/09 09:14:52;;;;;;;20.92;10.02;;;8.90;99.90;;;;;;5024886;28;20028;-52
2021/11/09 09:17:17;;;;;;;16.85;9.95;;;8.90;99.90;;;;;;5027055;28;20399;-52
2021/11/09 09:20:08;;;;;;;19.45;10.30;;;9.00;99.90;;;;;;5026514;28;20024;-54
2021/11/09 09:22:44;;;;;;;18.25;10.07;;;9.00;99.90;;;;;;5026972;28;20108;-52
2021/11/09 09:25:24;;;;;;;20.75;10.40;;;9.10;99.90;;;;;;5023569;28;20380;-52
2021/11/09 09:52:09;;;;;;;17.20;9.63;;;9.30;99.90;;;;;;5026379;28;20040;-52
2021/11/09 09:52:11;;;;;;;22.88;10.25;;;9.30;99.90;;;;;;5026144;28;20056;-56
2021/11/09 09:52:54;;;;;;;21.15;10.88;;;9.50;99.90;;;;;;5025708;28;20669;-53
2021/11/09 09:57:46;;;;;;;20.02;10.30;;;9.50;99.90;;;;;;5026674;28;20120;-55
2021/11/09 10:00:13;;;;;;;16.05;9.98;;;9.60;99.90;;;;;;5026299;28;20026;-53
2021/11/09 10:02:54;;;;;;;18.08;10.45;;;9.60;99.90;;;;;;5026504;28;20164;-52
2021/11/09 10:05:22;;;;;;;26.40;12.02;;;9.60;99.90;;;;;;5025746;28;20038;-51
2021/11/09 10:07:53;;;;;;;18.38;11.43;;;9.70;99.90;;;;;;5026769;28;20080;-55
2021/11/09 10:10:33;;;;;;;17.90;10.77;;;9.70;99.90;;;;;;5026463;28;20029;-53
2021/11/09 10:13:12;;;;;;;23.00;12.85;;;9.70;99.90;;;;;;5019100;28;20033;-54
2021/11/09 10:15:45;;;;;;;22.23;11.32;;;9.70;99.90;;;;;;5024793;28;20033;-54
2021/11/09 10:18:13;;;;;;;18.25;10.80;;;9.80;99.90;;;;;;5021722;28;20030;-51
2021/11/09 10:20:58;;;;;;;28.58;12.77;;;9.80;99.90;;;;;;5026797;28;20021;-51
2021/11/09 10:23:26;;;;;;;28.08;11.80;;;9.80;99.90;;;;;;5024365;28;20025;-55
2021/11/09 10:25:59;;;;;;;17.17;11.35;;;9.80;99.90;;;;;;5024111;28;20511;-53
2021/11/09 10:28:26;;;;;;;22.45;12.55;;;9.80;99.90;;;;;;5024573;28;20053;-51
2021/11/09 10:30:56;;;;;;;22.02;11.00;;;9.80;99.90;;;;;;5023287;28;20032;-53
2021/11/09 10:33:24;;;;;;;21.02;11.88;;;9.80;99.90;;;;;;5027857;28;20127;-53
2021/11/09 10:35:51;;;;;;;18.13;10.60;;;9.80;99.90;;;;;;5027337;28;20072;-54
2021/11/09 10:38:17;;;;;;;22.30;11.38;;;9.80;99.90;;;;;;5027557;28;20033;-50
2021/11/09 10:40:48;;;;;;;18.45;11.40;;;9.80;99.90;;;;;;5029406;28;20407;-54
2021/11/09 10:43:15;;;;;;;20.88;10.55;;;9.80;99.90;;;;;;5026476;28;20094;-55
2021/11/09 10:45:41;;;;;;;23.58;11.32;;;9.90;99.90;;;;;;5027192;28;20032;-56
2021/11/09 10:48:10;;;;;;;18.75;10.73;;;9.90;99.90;;;;;;5029521;28;20033;-56
2021/11/09 10:50:45;;;;;;;20.13;10.68;;;9.90;99.90;;;;;;5028175;28;21655;-54
2021/11/09 10:53:29;;;;;;;17.33;8.75;;;9.90;99.90;;;;;;5027494;28;20037;-51
2021/11/09 11:04:09;;;;;;;20.80;8.48;;;10.00;99.90;;;;;;5028265;28;20033;-50
2021/11/09 11:06:44;;;;;;;20.25;9.85;;;10.00;99.90;;;;;;5029386;28;20406;-55
2021/11/09 11:09:09;;;;;;;17.77;8.68;;;10.10;99.90;;;;;;5025708;28;20692;-51
2021/11/09 11:11:38;;;;;;;23.27;8.13;;;10.10;99.90;;;;;;5029168;28;20104;-53
2021/11/09 11:14:09;;;;;;;19.48;8.32;;;10.20;99.90;;;;;;5027269;28;20049;-55
2021/11/09 11:16:45;;;;;;;19.20;7.85;;;10.20;99.90;;;;;;5028378;28;20109;-53
2021/11/09 11:19:19;;;;;;;18.05;8.40;;;10.20;99.90;;;;;;5027793;28;20414;-53
2021/11/09 11:21:46;;;;;;;16.40;8.27;;;10.20;99.90;;;;;;5028149;28;20079;-56
2021/11/09 11:24:14;;;;;;;19.83;8.32;;;10.20;99.90;;;;;;5024225;28;20051;-54
2021/11/09 11:26:41;;;;;;;19.85;8.18;;;10.30;99.90;;;;;;5027850;28;20554;-54
2021/11/09 11:29:07;;;;;;;18.20;8.38;;;10.30;99.90;;;;;;5027364;28;20037;-52
2021/11/09 11:31:33;;;;;;;21.50;8.23;;;10.40;99.90;;;;;;5027471;28;20048;-54
2021/11/09 11:34:00;;;;;;;16.15;7.05;;;10.40;99.90;;;;;;5026562;28;20025;-52
2021/11/09 11:36:25;;;;;;;15.45;6.93;;;10.50;99.90;;;;;;5028845;28;20060;-54
2021/11/09 11:38:55;;;;;;;18.05;7.13;;;10.50;99.90;;;;;;5028485;28;20057;-55
2021/11/09 11:41:27;;;;;;;18.42;6.70;;;10.60;99.90;;;;;;5028104;28;20036;-52
2021/11/09 11:43:56;;;;;;;17.98;6.90;;;10.60;99.90;;;;;;5026823;28;20488;-51
2021/11/09 11:46:34;;;;;;;11.00;5.10;;;10.60;99.90;;;;;;5027277;28;20025;-54
2021/11/09 11:49:01;;;;;;;20.67;7.47;;;10.50;99.90;;;;;;5027624;28;20191;-52
2021/11/09 11:51:29;;;;;;;17.05;6.97;;;10.60;99.90;;;;;;5026851;28;20030;-56
2021/11/09 11:53:55;;;;;;;18.40;7.43;;;10.50;99.90;;;;;;5028241;28;20167;-55
2021/11/09 11:56:42;;;;;;;10.88;5.32;;;10.60;99.90;;;;;;5025242;28;20108;-53
2021/11/09 11:59:22;;;;;;;11.00;6.22;;;10.50;99.90;;;;;;5027036;28;20033;-56
2021/11/09 12:01:48;;;;;;;15.23;5.93;;;10.50;99.90;;;;;;5025443;28;20030;-53
2021/11/09 12:04:54;;;;;;;19.92;6.97;;;10.50;99.90;;;;;;5022305;28;20049;-55
2021/11/09 12:07:41;;;;;;;18.15;6.18;;;10.60;99.90;;;;;;4936712;29;20499;-52
2021/11/09 12:10:09;;;;;;;23.50;7.38;;;10.50;99.90;;;;;;5022821;28;20048;-54
2021/11/09 12:12:35;;;;;;;13.90;6.00;;;10.50;99.90;;;;;;5026632;28;20057;-53
2021/11/09 12:15:05;;;;;;;18.70;6.28;;;10.50;99.90;;;;;;5026908;28;20080;-52
2021/11/09 12:17:40;;;;;;;15.90;5.82;;;10.60;99.90;;;;;;5026571;28;20117;-54
2021/11/09 12:20:08;;;;;;;15.85;6.68;;;10.60;99.90;;;;;;5026326;28;20095;-53
2021/11/09 12:22:42;;;;;;;18.05;7.28;;;10.60;99.90;;;;;;5026426;28;20112;-54
2021/11/09 12:25:15;;;;;;;17.88;6.25;;;10.50;99.90;;;;;;5023864;28;20073;-50
2021/11/09 12:27:49;;;;;;;25.83;6.38;;;10.50;99.90;;;;;;5024713;28;20026;-53
2021/11/09 12:30:34;;;;;;;16.15;5.43;;;10.50;99.90;;;;;;5026247;28;20025;-52
2021/11/09 12:33:16;;;;;;;17.10;6.00;;;10.50;99.90;;;;;;5028185;28;20553;-54
2021/11/09 12:35:50;;;;;;;14.20;5.65;;;10.50;99.90;;;;;;5027688;28;20018;-53
2021/11/09 12:38:40;;;;;;;11.10;5.68;;;10.50;99.90;;;;;;5026919;28;20044;-53
2021/11/09 12:41:11;;;;;;;12.90;5.75;;;10.60;99.90;;;;;;5014667;28;20045;-52
2021/11/09 12:43:43;;;;;;;11.93;5.10;;;10.60;99.90;;;;;;5027708;28;20025;-53
2021/11/09 12:46:37;;;;;;;15.93;5.63;;;10.60;99.90;;;;;;5027908;28;20575;-53
2021/11/09 12:49:09;;;;;;;14.82;5.90;;;10.60;99.90;;;;;;5027675;28;20083;-52
2021/11/09 12:51:38;;;;;;;9.80;5.55;;;10.60;99.90;;;;;;5027521;28;20017;-53
2021/11/09 12:54:13;;;;;;;12.55;5.60;;;10.50;99.90;;;;;;5026984;28;20056;-52
2021/11/09 12:56:44;;;;;;;14.68;6.65;;;10.60;99.90;;;;;;5027125;28;20023;-53
2021/11/09 12:59:34;;;;;;;18.45;6.30;;;10.50;99.90;;;;;;5026605;28;20032;-51
2021/11/09 13:04:46;;;;;;;12.15;6.03;;;10.50;99.90;;;;;;5026643;28;20028;-52
2021/11/09 13:10:09;;;;;;;17.30;6.20;;;10.50;99.90;;;;;;5026924;28;20021;-52
2021/11/09 13:12:37;;;;;;;12.85;5.28;;;10.50;99.90;;;;;;5026724;28;20025;-55
2021/11/09 13:15:08;;;;;;;13.85;5.35;;;10.50;99.90;;;;;;5025509;28;20105;-54
2021/11/09 13:17:38;;;;;;;13.15;5.80;;;10.50;99.90;;;;;;5025830;28;20010;-53
2021/11/09 13:20:15;;;;;;;10.27;5.65;;;10.40;99.90;;;;;;5025631;28;20597;-52
2021/11/09 13:22:56;;;;;;;19.25;6.38;;;10.40;99.90;;;;;;5025451;28;20026;-54
2021/11/09 13:25:29;;;;;;;15.18;5.93;;;10.40;99.90;;;;;;5021771;28;20032;-52
2021/11/09 13:27:55;;;;;;;13.38;5.55;;;10.40;99.90;;;;;;5023287;28;20108;-55
2021/11/09 13:30:24;;;;;;;17.63;5.78;;;10.40;99.90;;;;;;5025664;28;20104;-52
2021/11/09 13:32:55;;;;;;;19.45;6.68;;;10.30;99.90;;;;;;5024331;28;20380;-54
2021/11/09 13:35:36;;;;;;;12.23;6.50;;;10.30;99.90;;;;;;5024534;28;20038;-51
2021/11/09 13:38:12;;;;;;;14.57;7.32;;;10.40;99.90;;;;;;5025365;28;20059;-54
2021/11/09 13:40:42;;;;;;;16.98;6.75;;;10.30;99.90;;;;;;5024683;28;20036;-54
2021/11/09 13:43:10;;;;;;;13.20;6.38;;;10.30;99.90;;;;;;5026018;28;20025;-54
2021/11/09 13:45:39;;;;;;;17.75;7.03;;;10.30;99.90;;;;;;5023003;28;20040;-50
2021/11/09 13:48:18;;;;;;;20.67;7.55;;;10.20;99.90;;;;;;5023195;28;20089;-52
2021/11/09 13:50:46;;;;;;;16.45;6.97;;;10.20;99.90;;;;;;5026437;28;20115;-52
2021/11/09 13:53:20;;;;;;;15.20;6.68;;;10.20;99.90;;;;;;5023395;28;20037;-54
2021/11/09 13:55:46;;;;;;;14.88;7.05;;;10.20;99.90;;;;;;5025391;28;20021;-55
2021/11/09 13:58:12;;;;;;;13.75;7.57;;;10.10;99.90;;;;;;5020143;28;20034;-56
2021/11/09 14:00:45;;;;;;;14.75;6.75;;;10.20;99.90;;;;;;5025359;28;20028;-51
2021/11/09 14:09:03;;;;;;;12.73;5.53;;;10.10;99.90;;;;;;5029619;28;20025;-52
2021/11/09 14:14:45;;;;;;;11.75;4.93;;;10.00;99.90;;;;;;5027342;28;20618;-53
2021/11/09 14:17:11;;;;;;;9.50;5.25;;;10.00;99.90;;;;;;5025459;28;20503;-54
2021/11/09 14:19:39;;;;;;;12.70;5.07;;;10.00;99.90;;;;;;5028767;28;20048;-52
2021/11/09 14:22:17;;;;;;;10.30;4.97;;;10.00;99.90;;;;;;5029165;28;20384;-50
2021/11/09 14:25:01;;;;;;;13.30;4.93;;;9.90;99.90;;;;;;5029749;28;20042;-54
2021/11/09 14:27:34;;;;;;;13.52;4.57;;;9.80;99.90;;;;;;5030098;28;20033;-52
2021/11/09 14:30:01;;;;;;;10.27;4.80;;;9.80;99.90;;;;;;5027595;28;20031;-53
2021/11/09 14:32:34;;;;;;;13.38;4.85;;;9.80;99.90;;;;;;5029984;28;20045;-51
2021/11/09 14:35:03;;;;;;;7.82;4.22;;;9.80;99.90;;;;;;5029037;28;20504;-51
2021/11/09 14:37:37;;;;;;;9.68;4.32;;;9.80;99.90;;;;;;5026676;28;20033;-54
2021/11/09 14:40:12;;;;;;;10.55;3.95;;;9.70;99.90;;;;;;5029507;28;20028;-53
2021/11/09 14:45:47;;;;;;;10.32;4.07;;;9.70;99.90;;;;;;5026448;28;20407;-52
2021/11/09 14:48:35;;;;;;;10.40;3.22;;;9.60;99.90;;;;;;5028965;28;20057;-53
2021/11/09 14:51:12;;;;;;;9.80;3.15;;;9.60;99.90;;;;;;5026509;28;20580;-53
2021/11/09 14:53:46;;;;;;;7.47;3.88;;;9.50;99.90;;;;;;5027873;28;20026;-54
2021/11/09 14:56:16;;;;;;;9.60;3.20;;;9.50;99.90;;;;;;5028894;28;20040;-51
2021/11/09 14:58:57;;;;;;;7.47;3.42;;;9.40;99.90;;;;;;5027428;28;20029;-55
2021/11/09 15:01:44;;;;;;;9.32;3.10;;;9.40;99.90;;;;;;5027453;28;20033;-54
2021/11/09 15:04:16;;;;;;;13.00;6.80;;;9.30;99.90;;;;;;5028124;28;20074;-54
2021/11/09 15:06:54;;;;;;;7.82;4.47;;;9.30;99.90;;;;;;5027267;28;20063;-51
2021/11/09 15:28:29;;;;;;;6.32;3.00;;;8.90;99.90;;;;;;5023784;28;20036;-54
2021/11/09 15:31:01;;;;;;;8.30;3.85;;;8.80;99.90;;;;;;5026617;28;20433;-56
2021/11/09 15:33:32;;;;;;;6.53;3.47;;;8.80;99.90;;;;;;5026530;28;20545;-57
2021/11/09 15:36:28;;;;;;;11.43;4.15;;;8.70;99.90;;;;;;5026806;28;20078;-57
2021/11/09 15:38:54;;;;;;;10.77;3.50;;;8.70;99.90;;;;;;5026839;28;20029;-55
2021/11/09 15:41:19;;;;;;;12.43;6.07;;;8.70;99.90;;;;;;5026842;28;20036;-55
2021/11/09 15:43:46;;;;;;;11.45;5.03;;;8.60;99.90;;;;;;5026265;28;20029;-55